Time;durP1;ratioP1;P1;durP2;ratioP2;P2;SDS_P1;SDS_P2;PMS_P1;PMS_P2;Temp;Humidity;BMP_temperature;BMP_pressure;BME280_temperature;BME280_humidity;BME280_pressure;Samples;Min_cycle;Max_cycle;Signal;HPM_P1;HPM_P2
2024/02/23 13:06:58;;;;;;;38.15;19.42;;;;;;;2.35;78.22;99515.47;5023290;28;20068;-61
2024/02/23 13:09:24;;;;;;;42.30;17.85;;;;;;;2.40;78.06;99524.41;5014016;28;20045;-61
2024/02/23 13:11:50;;;;;;;45.70;18.35;;;;;;;2.41;77.98;99528.66;5030655;28;20115;-61
2024/02/23 13:14:15;;;;;;;50.55;21.27;;;;;;;2.44;77.97;99525.69;5029605;28;20072;-62
2024/02/23 13:16:41;;;;;;;46.17;19.52;;;;;;;2.36;78.64;99531.00;5013947;28;20470;-62
2024/02/23 13:19:09;;;;;;;45.00;19.10;;;;;;;2.37;78.38;99537.03;5007867;28;20137;-61
2024/02/23 13:21:35;;;;;;;49.83;19.50;;;;;;;2.34;79.05;99530.34;5038938;28;20119;-60
2024/02/23 13:24:00;;;;;;;48.08;19.73;;;;;;;2.28;78.57;99536.31;5031524;28;20104;-61
2024/02/23 13:26:26;;;;;;;50.35;19.60;;;;;;;2.24;79.03;99537.66;5031729;28;20049;-63
2024/02/23 13:28:52;;;;;;;54.90;20.75;;;;;;;2.28;79.00;99536.31;5023654;28;20034;-60
2024/02/23 13:31:17;;;;;;;53.10;21.02;;;;;;;2.37;78.84;99537.03;5011423;28;20125;-62
2024/02/23 13:33:44;;;;;;;50.38;19.45;;;;;;;2.33;78.72;99535.78;5010759;28;20404;-59
2024/02/23 13:36:11;;;;;;;50.72;21.17;;;;;;;2.32;78.70;99541.97;5012138;28;20042;-63
2024/02/23 13:38:39;;;;;;;51.20;19.58;;;;;;;2.28;79.00;99537.13;5029950;28;20045;-60
2024/02/23 13:41:05;;;;;;;46.78;20.25;;;;;;;2.28;79.14;99538.91;5022644;28;20094;-62
2024/02/23 13:43:33;;;;;;;59.40;21.33;;;;;;;2.27;79.58;99559.03;5011153;28;20046;-60
2024/02/23 13:45:59;;;;;;;56.30;21.23;;;;;;;2.24;79.52;99546.31;5025594;28;20132;-61
2024/02/23 13:48:27;;;;;;;50.17;20.15;;;;;;;2.25;79.20;99549.75;4970826;28;20403;-61
2024/02/23 13:50:53;;;;;;;53.42;21.73;;;;;;;2.25;79.48;99547.13;5021023;28;20038;-62
2024/02/23 13:53:19;;;;;;;48.03;19.90;;;;;;;2.24;79.59;99545.53;5018847;28;20457;-61
2024/02/23 13:55:45;;;;;;;48.88;19.40;;;;;;;2.17;79.71;99544.59;5019022;28;20041;-63
2024/02/23 13:58:12;;;;;;;50.85;21.52;;;;;;;2.23;80.09;99547.28;5024595;28;20067;-60
2024/02/23 14:00:37;;;;;;;49.90;19.95;;;;;;;2.22;79.93;99544.88;5029982;28;20525;-62
2024/02/23 14:03:03;;;;;;;52.67;20.90;;;;;;;2.17;80.10;99549.81;5010792;28;20136;-60
2024/02/23 14:05:29;;;;;;;48.42;19.98;;;;;;;2.11;80.20;99548.72;5012728;28;20049;-61
2024/02/23 14:07:55;;;;;;;57.33;22.10;;;;;;;2.13;79.85;99551.19;5029596;28;20088;-60
2024/02/23 14:10:20;;;;;;;52.95;22.42;;;;;;;2.09;80.41;99542.88;5046229;28;20073;-64
2024/02/23 14:12:46;;;;;;;56.28;21.50;;;;;;;2.12;80.20;99547.75;5030407;28;20056;-62
2024/02/23 14:15:15;;;;;;;60.17;22.33;;;;;;;2.05;80.73;99541.59;5029955;28;20507;-61
2024/02/23 14:17:40;;;;;;;53.70;20.55;;;;;;;2.12;80.66;99546.91;5045688;28;20559;-61
2024/02/23 14:20:07;;;;;;;56.25;21.38;;;;;;;2.05;80.75;99542.41;5030698;28;20139;-60
2024/02/23 14:22:33;;;;;;;57.78;21.30;;;;;;;2.10;80.77;99548.94;5029615;28;20388;-60
2024/02/23 14:24:58;;;;;;;54.33;22.98;;;;;;;2.10;80.70;99549.72;5045903;28;20115;-60
2024/02/23 14:27:24;;;;;;;53.45;22.10;;;;;;;2.09;80.65;99548.13;5030931;28;20052;-61
2024/02/23 14:29:50;;;;;;;57.85;22.27;;;;;;;2.14;80.72;99551.00;5029134;28;20578;-63
2024/02/23 14:32:17;;;;;;;61.70;22.38;;;;;;;2.12;80.89;99547.75;5030096;28;20041;-60
2024/02/23 14:34:43;;;;;;;60.53;23.02;;;;;;;2.07;80.70;99547.47;5030894;28;20450;-62
2024/02/23 14:37:09;;;;;;;51.83;20.02;;;;;;;2.02;81.10;99549.81;5030555;28;20060;-63
2024/02/23 14:39:34;;;;;;;60.08;22.75;;;;;;;1.98;81.19;99551.97;5045748;28;20045;-63
2024/02/23 14:42:00;;;;;;;57.92;22.63;;;;;;;1.99;81.06;99552.78;5012568;28;20046;-62
2024/02/23 14:44:26;;;;;;;58.55;20.80;;;;;;;2.03;81.34;99556.69;5028705;28;20499;-62
2024/02/23 14:46:52;;;;;;;65.00;24.95;;;;;;;2.02;81.01;99561.06;5016463;28;20492;-59
2024/02/23 14:49:18;;;;;;;59.65;23.73;;;;;;;1.99;81.01;99558.81;5010753;28;20133;-60
2024/02/23 14:51:45;;;;;;;55.28;21.90;;;;;;;2.01;81.27;99546.38;5009457;28;20138;-63
2024/02/23 14:54:14;;;;;;;60.70;22.70;;;;;;;1.98;80.93;99551.97;5025796;28;20488;-59
2024/02/23 14:56:40;;;;;;;57.15;23.17;;;;;;;2.02;81.07;99558.44;5010619;28;20470;-62
2024/02/23 14:59:10;;;;;;;56.70;22.92;;;;;;;2.02;81.31;99566.28;5012855;28;20057;-60
2024/02/23 15:01:37;;;;;;;57.95;23.30;;;;;;;2.09;81.40;99558.56;5014496;28;20046;-58
2024/02/23 15:04:04;;;;;;;55.13;23.30;;;;;;;2.16;80.55;99574.34;5013172;28;20396;-61
2024/02/23 15:06:29;;;;;;;54.42;23.30;;;;;;;2.23;80.41;99570.03;5005621;28;20057;-61
2024/02/23 15:08:55;;;;;;;59.58;21.73;;;;;;;2.30;80.11;99572.75;5048053;28;20207;-60
2024/02/23 15:11:21;;;;;;;66.57;22.58;;;;;;;2.20;80.11;99565.97;5031515;28;20095;-61
2024/02/23 15:13:49;;;;;;;55.60;22.80;;;;;;;2.18;80.13;99569.78;5015359;28;20053;-61
2024/02/23 15:16:15;;;;;;;58.60;22.08;;;;;;;2.14;80.55;99577.13;5015483;28;20045;-64
2024/02/23 15:18:40;;;;;;;54.35;22.50;;;;;;;2.11;80.45;99568.84;5033939;28;20091;-62
2024/02/23 15:21:06;;;;;;;54.38;23.17;;;;;;;2.10;80.61;99568.03;5032232;28;20068;-60
2024/02/23 15:23:32;;;;;;;54.58;22.15;;;;;;;2.04;80.66;99566.13;5031755;28;20045;-62
2024/02/23 15:25:58;;;;;;;54.38;22.40;;;;;;;2.01;80.68;99569.09;5031728;28;20033;-61
2024/02/23 15:28:24;;;;;;;52.08;21.48;;;;;;;2.04;80.82;99571.38;5047569;28;20484;-59
2024/02/23 15:30:51;;;;;;;51.45;21.48;;;;;;;1.95;80.82;99582.88;5032541;28;20042;-62
2024/02/23 15:33:20;;;;;;;60.97;22.23;;;;;;;2.02;81.14;99581.97;5031451;28;20042;-61
2024/02/23 15:35:46;;;;;;;58.13;24.13;;;;;;;1.98;81.21;99598.22;5023674;28;20486;-61
2024/02/23 15:38:12;;;;;;;51.40;21.95;;;;;;;2.04;81.10;99602.75;5022072;28;20037;-62
2024/02/23 15:40:38;;;;;;;51.38;22.60;;;;;;;2.00;80.89;99607.50;5036386;28;20041;-61
2024/02/23 15:43:04;;;;;;;66.13;23.40;;;;;;;2.01;80.93;99603.09;5021679;28;20042;-61
2024/02/23 15:45:29;;;;;;;58.83;22.40;;;;;;;2.04;81.29;99600.94;5053571;28;20053;-60
2024/02/23 15:47:55;;;;;;;52.17;22.75;;;;;;;2.14;80.64;99605.91;5020518;28;20038;-61
2024/02/23 15:50:21;;;;;;;55.72;24.02;;;;;;;2.19;80.38;99618.47;5022574;28;20033;-62
2024/02/23 15:52:48;;;;;;;48.70;20.85;;;;;;;2.26;79.94;99611.53;5024670;28;20041;-62
2024/02/23 15:55:14;;;;;;;52.85;22.35;;;;;;;2.25;79.77;99610.72;5013435;28;20042;-64
2024/02/23 15:57:40;;;;;;;51.00;21.67;;;;;;;2.29;79.85;99608.53;5013651;28;20053;-62
2024/02/23 16:00:10;;;;;;;48.40;21.67;;;;;;;2.23;79.64;99596.19;5030666;28;20037;-64
2024/02/23 16:02:36;;;;;;;47.95;22.60;;;;;;;2.14;80.30;99608.53;5031876;28;20136;-61
2024/02/23 16:05:03;;;;;;;54.45;20.70;;;;;;;2.18;80.08;99606.38;5031725;28;20041;-64
2024/02/23 16:07:29;;;;;;;50.47;22.60;;;;;;;2.16;80.81;99608.34;4989023;28;1186744;-60
2024/02/23 16:09:55;;;;;;;48.30;20.75;;;;;;;2.17;80.13;99610.78;5014783;28;20120;-61
2024/02/23 16:12:22;;;;;;;57.72;22.70;;;;;;;2.18;80.32;99616.84;5032256;28;20091;-62
2024/02/23 16:14:47;;;;;;;52.05;22.83;;;;;;;2.13;80.21;99601.69;5047702;28;20037;-60
2024/02/23 16:17:13;;;;;;;49.38;22.42;;;;;;;2.24;80.34;99608.28;5032684;28;20053;-63
2024/02/23 16:19:40;;;;;;;57.22;21.52;;;;;;;2.21;80.11;99608.66;5031356;28;20091;-65
2024/02/23 16:22:05;;;;;;;56.10;22.80;;;;;;;2.33;79.65;99606.41;5031425;28;20503;-62
2024/02/23 16:24:31;;;;;;;49.65;21.30;;;;;;;2.35;79.89;99604.41;5031782;28;20079;-65
2024/02/23 16:26:57;;;;;;;53.88;23.30;;;;;;;2.34;79.97;99608.84;5032325;28;20037;-62
2024/02/23 16:29:23;;;;;;;51.88;22.65;;;;;;;2.30;80.03;99610.19;5031786;28;20514;-64
2024/02/23 16:31:49;;;;;;;51.10;21.27;;;;;;;2.36;80.12;99621.75;5031397;28;20053;-61
2024/02/23 16:34:15;;;;;;;53.72;22.92;;;;;;;2.45;79.74;99618.06;5032890;28;20450;-65
2024/02/23 16:36:42;;;;;;;48.72;22.52;;;;;;;2.52;79.53;99618.16;5014959;28;20049;-63
2024/02/23 16:39:08;;;;;;;51.30;20.45;;;;;;;2.55;79.36;99615.16;5031136;28;20056;-62
2024/02/23 16:41:37;;;;;;;52.78;22.75;;;;;;;2.60;78.85;99623.31;5032714;28;20041;-64
2024/02/23 16:44:03;;;;;;;46.65;21.33;;;;;;;2.46;79.07;99625.72;5031451;28;20052;-62
2024/02/23 16:46:29;;;;;;;50.10;21.33;;;;;;;2.57;79.19;99626.28;5048257;28;20048;-63
2024/02/23 16:48:55;;;;;;;54.17;21.98;;;;;;;2.48;79.40;99621.13;5048228;28;20053;-62
2024/02/23 16:51:21;;;;;;;48.60;21.88;;;;;;;2.44;79.58;99625.09;5033419;28;20438;-65
2024/02/23 16:53:48;;;;;;;43.80;20.02;;;;;;;2.53;79.32;99625.00;5033856;28;20049;-63
2024/02/23 16:56:14;;;;;;;47.13;21.30;;;;;;;2.61;78.88;99619.69;5033210;28;20037;-63
2024/02/23 16:58:40;;;;;;;49.20;21.85;;;;;;;2.58;79.01;99622.66;5015856;28;20412;-63
2024/02/23 17:01:07;;;;;;;44.75;20.33;;;;;;;2.53;79.10;99625.84;5049245;28;20099;-64
2024/02/23 17:03:33;;;;;;;49.63;21.30;;;;;;;2.45;78.99;99631.13;5033255;28;20041;-64
2024/02/23 17:06:04;;;;;;;50.70;23.20;;;;;;;2.54;79.28;99630.06;5031223;28;20531;-62
2024/02/23 17:08:30;;;;;;;46.90;21.58;;;;;;;2.53;79.52;99625.00;5014485;28;20041;-64
2024/02/23 17:10:56;;;;;;;53.05;22.52;;;;;;;2.55;79.62;99617.78;5032367;28;20045;-63
2024/02/23 17:13:22;;;;;;;56.28;21.67;;;;;;;2.47;79.15;99616.88;5047402;28;20519;-63
2024/02/23 17:15:47;;;;;;;50.58;20.73;;;;;;;2.41;79.32;99620.22;5014499;28;20042;-64
2024/02/23 17:18:13;;;;;;;48.58;20.85;;;;;;;2.47;79.79;99623.91;5030635;28;20059;-63
2024/02/23 17:20:39;;;;;;;46.72;20.55;;;;;;;2.47;79.42;99637.00;5031997;28;20045;-65
2024/02/23 17:23:04;;;;;;;43.00;20.10;;;;;;;2.49;79.70;99640.25;5031944;28;20057;-64
2024/02/23 17:25:32;;;;;;;45.38;20.13;;;;;;;2.55;79.50;99628.25;5047424;28;20041;-64
2024/02/23 17:27:58;;;;;;;45.88;21.48;;;;;;;2.53;79.30;99627.63;5028653;28;20053;-61
2024/02/23 17:30:24;;;;;;;46.40;20.70;;;;;;;2.55;79.64;99623.81;5029887;28;20537;-64
2024/02/23 17:32:49;;;;;;;42.75;20.00;;;;;;;2.44;79.21;99617.25;5029796;28;20053;-61
2024/02/23 17:35:16;;;;;;;43.90;20.08;;;;;;;2.33;79.80;99632.56;5030268;28;20037;-62
2024/02/23 17:37:42;;;;;;;42.67;19.40;;;;;;;2.32;80.18;99636.97;5031923;28;20491;-61
2024/02/23 17:40:09;;;;;;;45.25;20.60;;;;;;;2.36;80.04;99646.09;4997169;28;20041;-64
2024/02/23 17:42:35;;;;;;;44.85;18.40;;;;;;;2.34;79.72;99637.59;5031299;28;20056;-62
2024/02/23 17:45:02;;;;;;;37.42;17.67;;;;;;;2.35;79.95;99633.19;5012758;28;20133;-64
2024/02/23 17:47:29;;;;;;;40.38;19.52;;;;;;;2.34;80.29;99636.81;4994268;28;20046;-67
2024/02/23 17:49:54;;;;;;;37.70;17.95;;;;;;;2.39;80.01;99650.97;5011287;28;20392;-64
2024/02/23 17:52:20;;;;;;;39.25;18.88;;;;;;;2.48;79.86;99636.03;5011594;28;20491;-62
2024/02/23 17:54:46;;;;;;;41.63;19.33;;;;;;;2.51;79.38;99640.88;5027189;28;20045;-63
2024/02/23 17:57:11;;;;;;;40.83;16.75;;;;;;;2.46;79.39;99638.78;5030986;28;20495;-63
2024/02/23 17:59:37;;;;;;;40.97;18.58;;;;;;;2.42;79.58;99641.97;5031217;28;20045;-63
2024/02/23 18:02:03;;;;;;;35.25;17.02;;;;;;;2.43;79.63;99641.78;5012247;28;20041;-63
2024/02/23 18:04:29;;;;;;;44.33;19.17;;;;;;;2.40;80.08;99636.09;5024066;28;20099;-62
2024/02/23 18:06:55;;;;;;;39.67;17.02;;;;;;;2.48;80.01;99638.63;5009704;28;20053;-64
2024/02/23 18:09:21;;;;;;;40.25;18.35;;;;;;;2.54;79.74;99637.91;5022309;28;20499;-61
2024/02/23 18:11:49;;;;;;;38.75;17.25;;;;;;;2.58;79.16;99652.25;5029518;28;20096;-61
2024/02/23 18:14:15;;;;;;;36.55;17.48;;;;;;;2.45;79.76;99647.66;5030618;28;20052;-61
2024/02/23 18:16:43;;;;;;;39.67;18.80;;;;;;;2.55;79.46;99642.16;5030181;28;20033;-63
2024/02/23 18:19:09;;;;;;;36.40;16.90;;;;;;;2.63;79.11;99649.91;5026269;28;20080;-62
2024/02/23 18:21:35;;;;;;;39.67;17.58;;;;;;;2.66;78.92;99643.53;5030316;28;20084;-62
2024/02/23 18:24:01;;;;;;;34.33;17.02;;;;;;;2.63;78.88;99644.69;5030726;28;20044;-61
2024/02/23 18:26:27;;;;;;;35.95;16.38;;;;;;;2.55;79.36;99646.56;5030250;28;20495;-60
2024/02/23 18:28:53;;;;;;;38.60;17.52;;;;;;;2.57;79.50;99652.44;5029233;28;20049;-59
2024/02/23 18:31:19;;;;;;;39.55;18.20;;;;;;;2.62;79.17;99653.53;5029532;28;20049;-63
2024/02/23 18:33:46;;;;;;;33.78;16.63;;;;;;;2.61;79.12;99653.72;5034444;28;20045;-63
2024/02/23 18:36:13;;;;;;;33.45;15.68;;;;;;;2.60;78.77;99645.06;5033028;28;20048;-65
2024/02/23 18:38:41;;;;;;;33.15;15.40;;;;;;;2.48;79.49;99663.00;5034057;28;20103;-63
2024/02/23 18:41:08;;;;;;;31.63;15.93;;;;;;;2.42;79.74;99661.09;5034124;28;20068;-64
2024/02/23 18:43:35;;;;;;;38.22;16.67;;;;;;;2.50;79.77;99660.22;5032852;28;20042;-59
2024/02/23 18:46:03;;;;;;;33.45;15.80;;;;;;;2.52;79.26;99670.47;5033782;28;20044;-63
2024/02/23 18:48:30;;;;;;;37.25;17.42;;;;;;;2.53;79.71;99665.09;5034218;28;20446;-61
2024/02/23 18:50:56;;;;;;;36.22;17.75;;;;;;;2.50;79.19;99665.44;5019008;28;20100;-62
2024/02/23 18:53:22;;;;;;;39.28;18.52;;;;;;;2.46;79.88;99664.97;5012707;28;20045;-63
2024/02/23 18:55:48;;;;;;;38.40;18.83;;;;;;;2.48;79.90;99662.19;5014052;28;20042;-64
2024/02/23 18:58:14;;;;;;;47.35;22.35;;;;;;;2.59;79.68;99661.75;5012730;28;20069;-62
2024/02/23 19:00:40;;;;;;;41.17;21.63;;;;;;;2.67;79.44;99660.84;5015166;28;20046;-62
2024/02/23 19:03:06;;;;;;;48.85;22.00;;;;;;;2.69;78.97;99670.16;5033766;28;20046;-64
2024/02/23 19:05:31;;;;;;;47.92;22.77;;;;;;;2.68;78.48;99679.00;5032180;28;20034;-63
2024/02/23 19:07:57;;;;;;;46.92;22.58;;;;;;;2.64;78.80;99684.75;5033874;28;20052;-61
2024/02/23 19:10:23;;;;;;;51.50;23.90;;;;;;;2.68;78.94;99673.75;5033407;28;20033;-64
2024/02/23 19:12:48;;;;;;;44.03;21.95;;;;;;;2.72;78.92;99661.94;5033891;28;20050;-61
2024/02/23 19:15:14;;;;;;;41.58;20.70;;;;;;;2.71;78.25;99670.78;5032979;28;20041;-63
2024/02/23 19:17:41;;;;;;;39.45;19.63;;;;;;;2.66;78.13;99682.78;5033532;28;20099;-61
2024/02/23 19:20:09;;;;;;;44.40;20.42;;;;;;;2.63;78.05;99678.72;5032695;28;20041;-63
2024/02/23 19:22:38;;;;;;;40.78;19.80;;;;;;;2.61;78.66;99679.88;5028542;28;20052;-62
2024/02/23 19:25:05;;;;;;;39.63;18.27;;;;;;;2.56;78.74;99680.44;5013517;28;20053;-61
2024/02/23 19:27:31;;;;;;;36.92;18.55;;;;;;;2.58;78.57;99677.63;4995941;28;20046;-62
2024/02/23 19:30:01;;;;;;;37.60;18.23;;;;;;;2.54;78.62;99689.44;5028362;28;20041;-62
2024/02/23 19:32:28;;;;;;;35.08;16.25;;;;;;;2.40;79.22;99688.41;5027845;28;20078;-61
2024/02/23 19:34:54;;;;;;;37.72;17.38;;;;;;;2.37;79.34;99676.50;5011894;28;20076;-63
2024/02/23 19:37:19;;;;;;;34.63;16.90;;;;;;;2.49;79.40;99684.72;5013262;28;20503;-60
2024/02/23 19:39:45;;;;;;;34.88;17.00;;;;;;;2.54;78.99;99686.81;5012247;28;20038;-62
2024/02/23 19:42:11;;;;;;;37.33;17.27;;;;;;;2.54;79.07;99689.44;5011205;28;20381;-59
2024/02/23 19:44:37;;;;;;;36.10;16.83;;;;;;;2.43;78.65;99688.06;5010628;28;20500;-62
2024/02/23 19:47:02;;;;;;;30.88;15.50;;;;;;;2.45;78.57;99697.38;5013165;28;20038;-62
2024/02/23 19:49:31;;;;;;;35.25;14.45;;;;;;;2.47;79.02;99697.16;5013127;28;20529;-60
2024/02/23 19:51:56;;;;;;;32.35;15.15;;;;;;;2.44;78.58;99700.97;5010627;28;20044;-63
2024/02/23 19:54:22;;;;;;;32.70;13.95;;;;;;;2.42;78.69;99704.75;5011124;28;20070;-63
2024/02/23 19:56:48;;;;;;;33.70;16.50;;;;;;;2.42;78.38;99710.81;5028547;28;20045;-61
2024/02/23 19:59:14;;;;;;;33.47;15.23;;;;;;;2.28;78.24;99683.59;4962388;28;20096;-62
2024/02/23 20:01:40;;;;;;;36.05;16.40;;;;;;;2.44;78.59;99711.44;5028338;28;20104;-60
2024/02/23 20:04:05;;;;;;;34.85;15.20;;;;;;;2.43;78.10;99711.59;5013118;28;20125;-60
2024/02/23 20:06:31;;;;;;;32.55;15.35;;;;;;;2.54;78.41;99713.81;5021227;28;20057;-60
2024/02/23 20:08:57;;;;;;;35.10;17.23;;;;;;;2.42;78.29;99681.22;5047816;28;20415;-62
2024/02/23 20:11:23;;;;;;;30.42;14.85;;;;;;;2.63;77.55;99719.78;5032763;28;20072;-63
2024/02/23 20:13:48;;;;;;;31.98;15.30;;;;;;;2.42;77.52;99708.19;5031976;28;20073;-65
2024/02/23 20:16:14;;;;;;;30.20;13.32;;;;;;;2.39;78.30;99716.38;5031335;28;20037;-64
2024/02/23 20:18:40;;;;;;;32.88;15.35;;;;;;;2.33;78.99;99716.28;5032625;28;20061;-63
2024/02/23 20:21:05;;;;;;;30.65;15.23;;;;;;;2.46;78.60;99714.69;5047834;28;20046;-62
2024/02/23 20:23:31;;;;;;;31.05;14.75;;;;;;;2.57;78.05;99725.72;5032509;28;20484;-63
2024/02/23 20:25:57;;;;;;;31.73;15.00;;;;;;;2.65;77.65;99726.47;5030755;28;20663;-64
2024/02/23 20:28:22;;;;;;;33.05;15.57;;;;;;;2.67;77.65;99721.03;5032358;28;20052;-62
2024/02/23 20:30:49;;;;;;;29.90;14.43;;;;;;;2.66;77.65;99724.66;5031589;28;20425;-62
2024/02/23 20:33:15;;;;;;;29.67;14.00;;;;;;;2.63;77.15;99727.63;5031904;28;20080;-61
2024/02/23 20:35:41;;;;;;;32.42;14.52;;;;;;;2.62;76.98;99732.06;5030658;28;20079;-64
2024/02/23 20:38:07;;;;;;;31.83;14.48;;;;;;;2.56;77.34;99742.41;5032012;28;20076;-63
2024/02/23 20:40:33;;;;;;;31.45;14.85;;;;;;;2.70;77.28;99745.06;5031526;28;20026;-63
2024/02/23 20:42:59;;;;;;;32.45;14.55;;;;;;;2.68;76.89;99739.19;5031684;28;20044;-62
2024/02/23 20:45:24;;;;;;;25.70;12.73;;;;;;;2.67;77.19;99744.59;5032028;28;20096;-63
2024/02/23 20:47:50;;;;;;;25.02;13.88;;;;;;;2.58;76.85;99729.97;5032236;28;20138;-63
2024/02/23 20:50:16;;;;;;;29.02;13.95;;;;;;;2.35;77.26;99730.78;5030723;28;20041;-64
2024/02/23 20:52:42;;;;;;;22.85;11.52;;;;;;;2.21;77.88;99729.78;5032184;28;20046;-63
2024/02/23 20:55:08;;;;;;;28.50;13.27;;;;;;;2.25;77.94;99725.00;5031127;28;20500;-63
2024/02/23 20:57:34;;;;;;;25.30;13.30;;;;;;;2.20;78.89;99722.09;5032106;28;20051;-61
2024/02/23 20:59:59;;;;;;;26.80;13.80;;;;;;;2.13;78.40;99723.78;5031832;28;20415;-64
2024/02/23 21:02:25;;;;;;;28.08;13.63;;;;;;;2.11;78.20;99718.72;5032056;28;20060;-62
2024/02/23 21:04:51;;;;;;;24.98;12.52;;;;;;;2.14;78.45;99728.00;5031758;28;20069;-64
2024/02/23 21:07:17;;;;;;;24.73;13.02;;;;;;;2.09;78.61;99730.31;5031418;28;20057;-63
2024/02/23 21:09:44;;;;;;;25.45;13.60;;;;;;;2.07;78.65;99734.94;5031623;28;20415;-64
2024/02/23 21:12:10;;;;;;;28.55;12.90;;;;;;;2.05;78.80;99729.88;5030680;28;20115;-65
2024/02/23 21:14:35;;;;;;;27.80;13.75;;;;;;;2.09;79.18;99740.78;5047038;28;20490;-63
2024/02/23 21:17:01;;;;;;;26.00;12.95;;;;;;;2.17;78.74;99743.34;5046857;28;20055;-63
2024/02/23 21:19:27;;;;;;;26.05;12.75;;;;;;;2.26;78.08;99737.91;5013884;28;20137;-65
2024/02/23 21:21:53;;;;;;;28.02;13.23;;;;;;;2.36;78.16;99736.84;5031296;28;20044;-64
2024/02/23 21:24:18;;;;;;;22.67;11.95;;;;;;;2.35;77.48;99743.88;5031661;28;20045;-65
2024/02/23 21:26:46;;;;;;;26.02;13.18;;;;;;;2.31;77.63;99747.84;5046905;28;20127;-65
2024/02/23 21:29:12;;;;;;;29.23;13.90;;;;;;;2.22;77.95;99736.63;5031614;28;20080;-64
2024/02/23 21:31:37;;;;;;;28.42;14.27;;;;;;;2.23;78.32;99742.66;5030275;28;20468;-65
2024/02/23 21:34:03;;;;;;;29.48;14.00;;;;;;;2.28;77.58;99742.97;5031662;28;20052;-65
2024/02/23 21:36:29;;;;;;;26.75;13.98;;;;;;;2.22;77.83;99752.31;5031301;28;20037;-67
2024/02/23 21:38:54;;;;;;;26.70;12.75;;;;;;;2.23;77.65;99746.06;5013398;28;20084;-64
2024/02/23 21:41:20;;;;;;;27.73;12.82;;;;;;;2.29;78.10;99741.97;5046618;28;20049;-67
2024/02/23 21:43:46;;;;;;;27.90;12.60;;;;;;;2.11;77.79;99737.00;5031066;28;20090;-65
2024/02/23 21:46:12;;;;;;;24.70;13.10;;;;;;;2.11;78.07;99746.66;5031477;28;20166;-66
2024/02/23 21:48:41;;;;;;;21.60;12.20;;;;;;;1.99;78.03;99754.09;5030081;28;20110;-63
2024/02/23 21:51:12;;;;;;;27.37;12.90;;;;;;;1.80;78.75;99758.78;5046500;28;20081;-65
2024/02/23 21:53:37;;;;;;;24.98;13.30;;;;;;;1.78;78.61;99752.91;5046423;28;20304;-66
2024/02/23 21:56:04;;;;;;;24.85;12.32;;;;;;;1.78;78.95;99770.38;5031246;28;20048;-67
2024/02/23 21:58:33;;;;;;;22.17;12.35;;;;;;;1.78;78.40;99770.38;5030715;28;20064;-66
2024/02/23 22:00:59;;;;;;;25.83;13.38;;;;;;;1.82;79.23;99776.88;5029802;28;20128;-66
2024/02/23 22:03:27;;;;;;;28.52;14.20;;;;;;;1.86;78.90;99769.53;5031262;28;20049;-65
2024/02/23 22:05:53;;;;;;;27.63;13.40;;;;;;;1.95;78.72;99776.34;5029700;28;20423;-65
2024/02/23 22:08:18;;;;;;;30.20;13.55;;;;;;;1.98;77.83;99783.84;5031131;28;20053;-66
2024/02/23 22:10:44;;;;;;;29.30;13.55;;;;;;;1.94;78.57;99782.56;5046372;28;20034;-65
2024/02/23 22:13:09;;;;;;;26.67;13.77;;;;;;;2.05;78.41;99788.22;5046161;28;20061;-66
2024/02/23 22:15:35;;;;;;;28.90;13.57;;;;;;;2.00;77.71;99789.72;5030927;28;20454;-63
2024/02/23 22:18:01;;;;;;;28.73;13.90;;;;;;;1.99;78.27;99793.31;5046249;28;20081;-63
2024/02/23 22:20:28;;;;;;;28.48;14.18;;;;;;;2.04;77.51;99804.09;5029708;28;20539;-65
2024/02/23 22:22:54;;;;;;;28.10;14.07;;;;;;;2.00;77.62;99810.63;5030882;28;20054;-65
2024/02/23 22:25:20;;;;;;;25.90;13.30;;;;;;;2.06;78.25;99815.19;5030982;28;20045;-64
2024/02/23 22:27:46;;;;;;;26.27;13.77;;;;;;;2.18;78.00;99813.81;5030808;28;20050;-64
2024/02/23 22:30:12;;;;;;;24.73;13.13;;;;;;;2.21;77.45;99810.84;5029501;28;20072;-64
2024/02/23 22:32:38;;;;;;;27.73;13.32;;;;;;;2.08;77.43;99805.34;5046027;28;20045;-62
2024/02/23 22:35:04;;;;;;;26.80;13.82;;;;;;;2.05;77.29;99811.75;5030607;28;20048;-63
2024/02/23 22:37:30;;;;;;;28.55;13.70;;;;;;;2.07;77.23;99827.28;5030551;28;20092;-64
2024/02/23 22:39:56;;;;;;;27.67;14.50;;;;;;;1.99;77.40;99822.88;5029249;28;20041;-65
2024/02/23 22:42:22;;;;;;;28.50;13.60;;;;;;;2.05;77.61;99814.34;5030804;28;20049;-63
2024/02/23 22:44:48;;;;;;;26.65;13.50;;;;;;;1.97;77.85;99824.03;5030653;28;20037;-64
2024/02/23 22:47:14;;;;;;;27.23;13.75;;;;;;;1.95;78.06;99821.59;5030925;28;20153;-60
2024/02/23 22:49:41;;;;;;;28.40;13.57;;;;;;;1.98;78.50;99830.91;5030525;28;20049;-63
2024/02/23 22:52:07;;;;;;;25.92;13.50;;;;;;;1.97;78.47;99829.25;5030261;28;20563;-62
2024/02/23 22:54:33;;;;;;;33.65;15.32;;;;;;;2.01;77.93;99825.34;5029208;28;20128;-64
2024/02/23 22:56:58;;;;;;;26.65;14.45;;;;;;;1.94;78.38;99825.22;5045321;28;20136;-63
2024/02/23 22:59:24;;;;;;;30.80;14.85;;;;;;;1.90;78.92;99823.91;5030004;28;20033;-64
2024/02/23 23:01:50;;;;;;;29.30;14.15;;;;;;;1.91;78.69;99832.56;5044997;28;20507;-63
2024/02/23 23:04:15;;;;;;;26.67;14.50;;;;;;;1.97;78.45;99832.72;5046052;28;20034;-65
2024/02/23 23:06:45;;;;;;;29.27;14.90;;;;;;;1.87;78.34;99823.44;5030136;28;20148;-63
2024/02/23 23:09:11;;;;;;;28.70;14.63;;;;;;;1.86;79.10;99817.41;5030680;28;20045;-63
2024/02/23 23:11:38;;;;;;;24.63;12.38;;;;;;;1.92;78.21;99813.31;5030633;28;20450;-63
2024/02/23 23:14:04;;;;;;;29.25;14.82;;;;;;;1.89;78.37;99819.69;5029141;28;20037;-61
2024/02/23 23:16:30;;;;;;;26.73;14.00;;;;;;;1.98;79.50;99816.03;5029805;28;20045;-64
2024/02/23 23:18:56;;;;;;;27.77;14.38;;;;;;;1.94;78.51;99821.75;5033643;28;20526;-61
2024/02/23 23:21:23;;;;;;;29.38;15.30;;;;;;;1.84;78.59;99821.97;5034175;28;20048;-63
2024/02/23 23:23:49;;;;;;;26.38;14.07;;;;;;;1.89;79.39;99821.47;5034185;28;20128;-62
2024/02/23 23:26:16;;;;;;;25.05;13.35;;;;;;;1.84;78.37;99816.75;5033964;28;20137;-64
2024/02/23 23:28:42;;;;;;;22.98;11.50;;;;;;;1.69;78.67;99818.44;5032567;28;20037;-61
2024/02/23 23:31:08;;;;;;;29.63;13.32;;;;;;;1.67;78.90;99808.16;5033688;28;20131;-63
2024/02/23 23:33:33;;;;;;;24.00;13.38;;;;;;;1.72;79.08;99821.53;5033838;28;20065;-63
2024/02/23 23:35:59;;;;;;;23.58;12.38;;;;;;;1.76;78.75;99814.97;5033632;28;20052;-63
2024/02/23 23:38:25;;;;;;;27.60;13.05;;;;;;;1.64;78.75;99816.34;5033712;28;20057;-63
2024/02/23 23:40:51;;;;;;;25.63;12.95;;;;;;;1.54;79.55;99815.72;5033764;28;20050;-62
2024/02/23 23:43:16;;;;;;;29.10;12.20;;;;;;;1.61;79.46;99814.06;5048729;28;20056;-64
2024/02/23 23:45:42;;;;;;;23.25;11.88;;;;;;;1.56;78.91;99808.56;5033405;28;20034;-65
2024/02/23 23:48:09;;;;;;;23.20;12.40;;;;;;;1.54;79.53;99813.94;5032113;28;20144;-63
2024/02/23 23:50:36;;;;;;;23.38;11.57;;;;;;;1.50;79.31;99811.81;5015485;28;20049;-63
2024/02/23 23:53:02;;;;;;;22.27;11.85;;;;;;;1.60;79.30;99830.72;5032012;28;20131;-64
2024/02/23 23:55:27;;;;;;;22.75;11.90;;;;;;;1.60;78.85;99825.50;5033210;28;20499;-64
2024/02/23 23:57:53;;;;;;;21.70;10.98;;;;;;;1.48;80.02;99825.06;5033111;28;20060;-63
